createdAt,value
2022-07-28T00:03:11.325Z,100406.19
2022-07-28T00:08:12.385Z,100410.28
2022-07-28T00:13:11.174Z,100403.38
2022-07-28T00:18:10.039Z,100417.47
2022-07-28T00:23:08.879Z,100420.44
2022-07-28T00:28:09.125Z,100432.00
2022-07-28T00:33:07.860Z,100422.66
2022-07-28T00:38:06.691Z,100429.88
2022-07-28T00:43:05.481Z,100437.41
2022-07-28T00:48:06.184Z,100446.75
2022-07-28T00:53:04.996Z,100439.41
2022-07-28T00:58:03.762Z,100447.09
2022-07-28T01:03:02.891Z,100444.47
2022-07-28T01:08:07.149Z,100448.84
2022-07-28T01:13:14.690Z,100458.03
2022-07-28T01:18:19.889Z,100449.47
2022-07-28T01:23:37.973Z,100450.44
2022-07-28T01:28:50.121Z,100436.69
2022-07-28T01:33:55.984Z,100449.44
2022-07-28T01:38:55.337Z,100448.47
2022-07-28T01:43:58.434Z,100447.16
2022-07-28T01:49:00.769Z,100446.13
2022-07-28T01:54:01.602Z,100447.50
2022-07-28T01:59:05.120Z,100443.06
2022-07-28T02:04:06.840Z,100452.78
2022-07-28T02:09:07.223Z,100456.03
2022-07-28T02:14:08.723Z,100455.63
2022-07-28T02:19:10.304Z,100466.97
2022-07-28T02:24:14.539Z,100458.88
2022-07-28T02:29:40.557Z,100460.28
2022-07-28T02:34:39.754Z,100467.22
2022-07-28T02:39:44.647Z,100481.88
2022-07-28T02:45:00.906Z,100480.31
2022-07-28T02:50:03.976Z,100491.84
2022-07-28T02:55:04.782Z,100499.19
2022-07-28T03:00:04.137Z,100494.25
2022-07-28T03:05:08.687Z,100499.50
2022-07-28T03:10:18.549Z,100510.91
2022-07-28T03:15:33.246Z,100518.13
2022-07-28T03:20:34.538Z,100530.56
2022-07-28T03:25:39.757Z,100529.84
2022-07-28T03:30:43.064Z,100523.41
2022-07-28T03:35:48.779Z,100529.53
2022-07-28T03:40:50.383Z,100541.25
2022-07-28T03:45:49.461Z,100534.59
2022-07-28T03:50:49.540Z,100538.84
2022-07-28T03:55:51.157Z,100541.88
2022-07-28T04:00:52.839Z,100547.31
2022-07-28T04:05:53.045Z,100565.53
2022-07-28T04:10:53.538Z,100573.50
2022-07-28T04:15:52.369Z,100586.25
2022-07-28T04:20:52.537Z,100600.13
2022-07-28T04:25:51.334Z,100609.41
2022-07-28T04:30:50.172Z,100608.44
2022-07-28T04:35:49.237Z,100603.25
2022-07-28T04:40:50.238Z,100605.84
2022-07-28T04:45:53.351Z,100611.78
2022-07-28T04:50:53.772Z,100609.03
2022-07-28T04:55:55.446Z,100631.03
2022-07-28T05:00:54.382Z,100620.69
2022-07-28T05:05:54.535Z,100632.88
2022-07-28T05:10:56.374Z,100623.53
2022-07-28T05:15:55.264Z,100625.47
2022-07-28T05:20:54.018Z,100618.34
2022-07-28T05:25:54.206Z,100630.28
2022-07-28T05:30:53.040Z,100641.38
2022-07-28T05:35:55.102Z,100646.78
2022-07-28T05:40:55.314Z,100655.81
2022-07-28T05:45:54.123Z,100660.28
2022-07-28T05:50:54.492Z,100671.69
2022-07-28T05:56:00.544Z,100661.16
2022-07-28T06:01:01.610Z,100647.28
2022-07-28T06:06:14.649Z,100668.47
2022-07-28T06:11:22.747Z,100663.94
2022-07-28T06:16:23.412Z,100666.72
2022-07-28T06:21:24.532Z,100674.22
2022-07-28T06:26:24.456Z,100665.03
2022-07-28T06:31:23.214Z,100667.81
2022-07-28T06:36:23.007Z,100674.72
2022-07-28T06:41:22.575Z,100671.59
2022-07-28T06:46:24.023Z,100674.25
2022-07-28T06:51:23.406Z,100684.69
2022-07-28T06:56:22.144Z,100690.97
2022-07-28T07:01:23.763Z,100690.44
2022-07-28T07:06:22.587Z,100702.25
2022-07-28T07:11:21.353Z,100689.38
2022-07-28T07:16:20.543Z,100695.44
2022-07-28T07:21:23.502Z,100711.53
2022-07-28T07:26:26.723Z,100718.84
2022-07-28T07:31:25.665Z,100713.03
2022-07-28T07:36:25.891Z,100717.78
2022-07-28T07:41:24.659Z,100722.91
2022-07-28T07:46:23.928Z,100706.78
2022-07-28T07:51:22.742Z,100704.06
2022-07-28T07:56:23.041Z,100701.78
2022-07-28T08:01:21.817Z,100699.94
2022-07-28T08:06:26.347Z,100698.34
2022-07-28T08:11:27.033Z,100701.41
2022-07-28T08:16:25.850Z,100706.63
2022-07-28T08:21:25.037Z,100708.16
2022-07-28T08:26:24.099Z,100705.53
2022-07-28T08:31:24.614Z,100711.28
2022-07-28T08:36:23.929Z,100705.66
2022-07-28T08:41:33.530Z,100702.56
2022-07-28T08:46:37.435Z,100708.50
2022-07-28T08:51:38.179Z,100713.53
2022-07-28T08:56:39.689Z,100692.88
2022-07-28T09:01:51.650Z,100691.97
2022-07-28T09:06:55.405Z,100688.94
2022-07-28T09:11:54.293Z,100690.88
2022-07-28T09:16:54.844Z,100691.06
2022-07-28T09:21:53.590Z,100686.66
2022-07-28T09:27:02.604Z,100672.59
2022-07-28T09:32:03.216Z,100671.16
2022-07-28T09:37:02.249Z,100673.94
2022-07-28T09:42:02.006Z,100671.56
2022-07-28T09:47:02.234Z,100675.25
2022-07-28T09:52:02.337Z,100689.28
2022-07-28T09:57:01.162Z,100686.81
2022-07-28T10:02:02.971Z,100686.13
2022-07-28T10:07:03.773Z,100688.94
2022-07-28T10:12:19.797Z,100696.78
2022-07-28T10:17:33.513Z,100685.19
2022-07-28T10:22:34.648Z,100683.94
2022-07-28T10:27:35.216Z,100687.13
2022-07-28T10:32:42.685Z,100685.03
2022-07-28T10:37:47.546Z,100669.09
2022-07-28T10:42:46.354Z,100668.66
2022-07-28T10:47:48.002Z,100663.56
2022-07-28T10:52:48.276Z,100652.69
2022-07-28T10:58:01.925Z,100657.06
2022-07-28T11:03:13.427Z,100660.56
2022-07-28T11:08:29.536Z,100654.84
2022-07-28T11:13:33.332Z,100651.28
2022-07-28T11:19:36.705Z,100655.31
2022-07-28T11:24:26.768Z,100647.91
2022-07-28T11:29:27.560Z,100651.53
2022-07-28T11:34:27.899Z,100648.09
2022-07-28T11:39:27.994Z,100645.22
2022-07-28T11:44:27.982Z,100646.28
2022-07-28T11:49:28.827Z,100642.69
2022-07-28T11:54:27.623Z,100638.56
2022-07-28T11:59:36.456Z,100631.66
2022-07-28T12:04:38.553Z,100639.91
2022-07-28T12:09:42.563Z,100633.31
2022-07-28T12:14:43.549Z,100632.19
2022-07-28T12:19:43.696Z,100627.44
2022-07-28T12:24:44.920Z,100613.53
2022-07-28T12:29:47.902Z,100610.06
2022-07-28T12:34:49.664Z,100610.88
2022-07-28T12:39:52.506Z,100598.50
2022-07-28T12:44:54.200Z,100596.22
2022-07-28T12:50:10.052Z,100594.13
2022-07-28T12:55:27.005Z,100581.16
2022-07-28T13:00:27.534Z,100581.31
2022-07-28T13:05:33.395Z,100563.47
2022-07-28T13:10:32.647Z,100551.81
2022-07-28T13:15:32.141Z,100553.66
2022-07-28T13:20:34.741Z,100564.78
2022-07-28T13:25:34.315Z,100567.41
2022-07-28T13:30:33.105Z,100549.38
2022-07-28T13:35:33.345Z,100561.19
2022-07-28T13:40:32.147Z,100569.03
2022-07-28T13:45:30.993Z,100568.22
2022-07-28T13:50:30.245Z,100603.72
2022-07-28T13:55:30.733Z,100611.03
2022-07-28T14:00:29.821Z,100635.00
2022-07-28T14:05:31.921Z,100664.56
2022-07-28T14:10:32.944Z,100661.03
2022-07-28T14:15:31.748Z,100755.63
2022-07-28T14:20:30.806Z,100716.28
2022-07-28T14:25:44.221Z,100657.41
2022-07-28T14:30:48.998Z,100682.13
2022-07-28T14:35:48.246Z,100689.91
2022-07-28T14:40:47.503Z,100688.97
2022-07-28T14:46:13.470Z,100673.25
2022-07-28T14:51:18.779Z,100659.69
2022-07-28T14:56:21.736Z,100659.84
2022-07-28T15:01:22.894Z,100640.84
2022-07-28T15:06:22.457Z,100634.94
2022-07-28T15:11:29.825Z,100618.28
2022-07-28T15:16:35.497Z,100628.25
2022-07-28T15:21:36.779Z,100640.63
2022-07-28T15:26:39.468Z,100647.53
2022-07-28T15:31:41.879Z,100657.50
2022-07-28T15:36:43.213Z,100663.28
2022-07-28T15:41:44.338Z,100685.59
2022-07-28T15:46:46.646Z,100677.44
2022-07-28T15:51:45.715Z,100666.34
2022-07-28T15:56:44.478Z,100677.28
2022-07-28T16:01:45.753Z,100675.97
2022-07-28T16:07:02.251Z,100665.75
2022-07-28T16:12:01.263Z,100661.13
2022-07-28T16:17:05.958Z,100758.97
2022-07-28T16:22:04.492Z,100742.88
2022-07-28T16:27:03.294Z,100780.41
2022-07-28T16:32:02.124Z,100778.13
2022-07-28T16:37:05.758Z,100775.59
2022-07-28T16:42:08.313Z,100790.91
2022-07-28T16:47:07.469Z,100807.22
2022-07-28T16:52:07.865Z,100802.25
2022-07-28T16:57:07.421Z,100796.81
2022-07-28T17:02:07.254Z,100812.91
2022-07-28T17:07:08.391Z,100812.69
2022-07-28T17:12:08.755Z,100822.31
2022-07-28T17:17:07.666Z,100868.66
2022-07-28T17:22:11.060Z,100860.94
2022-07-28T17:32:28.942Z,100857.16
2022-07-28T17:37:29.378Z,100865.44
2022-07-28T17:42:28.349Z,100864.44
2022-07-28T17:47:35.880Z,100870.00
2022-07-28T17:52:36.804Z,100859.75
2022-07-28T17:57:37.879Z,100857.81
2022-07-28T18:02:39.396Z,100842.09
2022-07-28T18:07:51.245Z,100839.16
2022-07-28T18:12:51.675Z,100834.53
2022-07-28T18:17:54.964Z,100839.84
2022-07-28T18:22:57.567Z,100833.22
2022-07-28T18:27:56.793Z,100820.78
2022-07-28T18:32:56.043Z,100816.03
2022-07-28T18:37:59.007Z,100821.31
2022-07-28T18:42:59.153Z,100815.47
2022-07-28T18:47:59.778Z,100831.31
2022-07-28T18:53:00.746Z,100846.97
2022-07-28T18:57:59.690Z,100856.25
2022-07-28T19:02:58.651Z,100882.19
2022-07-28T19:07:57.630Z,100893.16
2022-07-28T19:12:58.022Z,100909.78
2022-07-28T19:18:10.431Z,100921.75
2022-07-28T19:23:10.568Z,100931.66
2022-07-28T19:28:11.796Z,100930.91
2022-07-28T19:33:14.596Z,100931.16
2022-07-28T19:38:16.617Z,100926.41
2022-07-28T19:43:16.839Z,100918.94
2022-07-28T19:48:15.913Z,100919.56
2022-07-28T19:53:15.146Z,100909.31
2022-07-28T19:58:14.225Z,100904.75
2022-07-28T20:04:03.512Z,100895.53
2022-07-28T20:08:33.804Z,100899.50
2022-07-28T20:13:32.806Z,100907.06
2022-07-28T20:18:33.245Z,100896.84
2022-07-28T20:23:34.590Z,100900.78
2022-07-28T20:28:33.534Z,100907.47
2022-07-28T20:33:33.796Z,100911.59
2022-07-28T20:38:32.660Z,100910.25
2022-07-28T20:43:37.131Z,100910.66
2022-07-28T20:48:37.746Z,100908.78
2022-07-28T20:53:37.557Z,100915.25
2022-07-28T20:58:36.560Z,100924.44
2022-07-28T21:03:35.637Z,100930.03
2022-07-28T21:08:35.895Z,100920.63
2022-07-28T21:13:36.629Z,100921.97
2022-07-28T21:18:35.696Z,100918.78
2022-07-28T21:23:36.056Z,100917.94
2022-07-28T21:28:52.223Z,100926.31
2022-07-28T21:33:51.254Z,100933.25
2022-07-28T21:38:51.384Z,100938.97
2022-07-28T21:43:50.243Z,100952.13
2022-07-28T21:48:49.046Z,100957.63
2022-07-28T21:53:48.381Z,100957.63
2022-07-28T21:58:48.738Z,100954.09
2022-07-28T22:03:47.486Z,100958.81
2022-07-28T22:08:46.219Z,100961.53
2022-07-28T22:13:45.170Z,100958.56
2022-07-28T22:18:45.556Z,100963.56
2022-07-28T22:23:44.471Z,100965.84
2022-07-28T22:28:43.333Z,100957.91
2022-07-28T22:33:42.129Z,100956.91
2022-07-28T22:38:42.316Z,100941.63
2022-07-28T22:43:41.031Z,100947.41
2022-07-28T22:48:40.091Z,100958.13
2022-07-28T22:53:38.899Z,100962.72
2022-07-28T22:58:40.238Z,100957.75
2022-07-28T23:03:39.200Z,100957.34
2022-07-28T23:08:38.053Z,100958.66
2022-07-28T23:13:38.273Z,100956.13
2022-07-28T23:18:39.590Z,100952.53
2022-07-28T23:23:38.146Z,100948.44
2022-07-28T23:28:38.286Z,100964.34
2022-07-28T23:33:54.283Z,100954.28
2022-07-28T23:38:56.219Z,100945.59
2022-07-28T23:43:56.570Z,100943.81
2022-07-28T23:48:55.392Z,100950.31
2022-07-28T23:53:56.422Z,100944.88
2022-07-28T23:58:56.866Z,100943.44
